createdAt,value
2022-11-04T00:00:49.411Z,0.00
2022-11-04T00:01:49.346Z,0.00
2022-11-04T00:02:49.343Z,0.00
2022-11-04T00:03:49.331Z,0.00
2022-11-04T00:04:49.285Z,0.00
2022-11-04T00:05:49.341Z,0.00
2022-11-04T00:06:49.271Z,0.00
2022-11-04T00:07:49.308Z,0.00
2022-11-04T00:08:49.243Z,0.00
2022-11-04T00:09:49.252Z,0.00
2022-11-04T00:10:49.256Z,0.00
2022-11-04T00:11:49.224Z,0.00
2022-11-04T00:12:49.213Z,0.00
2022-11-04T00:13:49.247Z,0.00
2022-11-04T00:14:49.182Z,0.00
2022-11-04T00:15:49.171Z,0.00
2022-11-04T00:16:49.172Z,0.00
2022-11-04T00:17:49.142Z,0.00
2022-11-04T00:18:49.191Z,0.00
2022-11-04T00:19:49.240Z,0.00
2022-11-04T00:20:49.176Z,0.00
2022-11-04T00:21:49.102Z,0.00
2022-11-04T00:22:49.256Z,0.00
2022-11-04T00:23:49.418Z,0.00
2022-11-04T00:24:49.104Z,0.00
2022-11-04T00:25:49.102Z,0.00
2022-11-04T00:26:49.042Z,0.00
2022-11-04T00:27:49.033Z,0.00
2022-11-04T00:28:49.023Z,0.00
2022-11-04T00:29:49.029Z,0.00
2022-11-04T00:30:49.054Z,0.00
2022-11-04T00:31:49.004Z,0.00
2022-11-04T00:32:49.035Z,0.00
2022-11-04T00:33:48.973Z,0.00
2022-11-04T00:34:48.950Z,0.00
2022-11-04T00:35:48.951Z,0.00
2022-11-04T00:36:48.956Z,0.00
2022-11-04T00:37:48.941Z,0.00
2022-11-04T00:38:48.905Z,0.00
2022-11-04T00:39:48.916Z,0.00
2022-11-04T00:40:48.925Z,0.00
2022-11-04T00:41:48.883Z,0.00
2022-11-04T00:42:48.877Z,0.00
2022-11-04T00:43:48.852Z,0.00
2022-11-04T00:44:48.843Z,0.00
2022-11-04T00:45:48.851Z,0.00
2022-11-04T00:46:48.812Z,0.00
2022-11-04T00:47:48.815Z,0.00
2022-11-04T00:48:48.807Z,0.00
2022-11-04T00:49:48.783Z,0.00
2022-11-04T00:50:48.785Z,0.00
2022-11-04T00:51:48.790Z,0.00
2022-11-04T00:52:48.761Z,0.00
2022-11-04T00:53:48.751Z,0.00
2022-11-04T00:54:48.773Z,0.00
2022-11-04T00:55:48.741Z,0.00
2022-11-04T00:56:48.773Z,0.00
2022-11-04T00:57:48.752Z,0.00
2022-11-04T00:58:48.677Z,0.00
2022-11-04T00:59:48.724Z,0.00
2022-11-04T01:00:48.662Z,0.00
2022-11-04T01:01:48.942Z,0.00
2022-11-04T01:02:48.752Z,0.00
2022-11-04T01:03:48.649Z,0.00
2022-11-04T01:04:48.648Z,0.00
2022-11-04T01:05:48.617Z,0.00
2022-11-04T01:06:48.642Z,0.00
2022-11-04T01:07:48.590Z,0.00
2022-11-04T01:08:48.578Z,0.00
2022-11-04T01:09:48.573Z,0.00
2022-11-04T01:10:48.560Z,0.00
2022-11-04T01:11:48.553Z,0.00
2022-11-04T01:12:48.521Z,0.00
2022-11-04T01:13:48.539Z,0.00
2022-11-04T01:14:48.513Z,0.00
2022-11-04T01:15:48.542Z,0.00
2022-11-04T01:16:48.560Z,0.00
2022-11-04T01:17:48.510Z,0.00
2022-11-04T01:18:48.482Z,0.00
2022-11-04T01:19:48.464Z,0.00
2022-11-04T01:20:48.452Z,0.00
2022-11-04T01:21:48.440Z,0.00
2022-11-04T01:22:48.468Z,0.00
2022-11-04T01:23:48.424Z,0.00
2022-11-04T01:24:48.410Z,0.00
2022-11-04T01:25:48.420Z,0.00
2022-11-04T01:26:48.385Z,0.00
2022-11-04T01:27:48.380Z,0.00
2022-11-04T01:28:48.394Z,0.00
2022-11-04T01:29:48.348Z,0.00
2022-11-04T01:30:48.362Z,0.00
2022-11-04T01:31:48.369Z,0.00
2022-11-04T01:32:48.619Z,0.00
2022-11-04T01:33:48.340Z,0.00
2022-11-04T01:34:48.299Z,0.00
2022-11-04T01:35:48.305Z,0.00
2022-11-04T01:36:48.270Z,0.00
2022-11-04T01:37:48.327Z,0.00
2022-11-04T01:38:48.268Z,0.00
2022-11-04T01:39:48.239Z,0.00
2022-11-04T01:40:48.247Z,0.00
2022-11-04T01:41:48.209Z,0.00
2022-11-04T01:42:48.219Z,0.00
2022-11-04T01:43:48.243Z,0.00
2022-11-04T01:44:48.247Z,0.00
2022-11-04T01:45:48.213Z,0.00
2022-11-04T01:46:48.204Z,0.00
2022-11-04T01:47:48.149Z,0.00
2022-11-04T01:48:48.185Z,0.00
2022-11-04T01:49:48.127Z,0.00
2022-11-04T01:50:48.109Z,0.00
2022-11-04T01:51:48.118Z,0.00
2022-11-04T01:52:48.100Z,0.00
2022-11-04T01:53:48.098Z,0.00
2022-11-04T01:54:48.078Z,0.00
2022-11-04T01:55:48.069Z,0.00
2022-11-04T01:56:48.077Z,0.00
2022-11-04T01:57:48.129Z,0.00
2022-11-04T01:58:48.130Z,0.00
2022-11-04T01:59:48.029Z,0.00
2022-11-04T02:00:48.019Z,0.00
2022-11-04T02:01:48.164Z,0.00
2022-11-04T02:02:48.021Z,0.00
2022-11-04T02:03:47.985Z,0.00
2022-11-04T02:04:47.962Z,0.00
2022-11-04T02:05:47.978Z,0.00
2022-11-04T02:06:47.989Z,0.00
2022-11-04T02:07:47.938Z,0.00
2022-11-04T02:08:47.928Z,0.00
2022-11-04T02:09:47.939Z,0.00
2022-11-04T02:10:47.907Z,0.00
2022-11-04T02:11:47.898Z,0.00
2022-11-04T02:12:47.878Z,0.00
2022-11-04T02:13:47.880Z,0.00
2022-11-04T02:14:47.873Z,0.00
2022-11-04T02:15:47.938Z,0.00
2022-11-04T02:16:47.859Z,0.00
2022-11-04T02:17:47.829Z,0.00
2022-11-04T02:18:47.857Z,0.00
2022-11-04T02:19:47.819Z,0.00
2022-11-04T02:20:47.802Z,0.00
2022-11-04T02:21:47.822Z,0.00
2022-11-04T02:22:47.768Z,0.00
2022-11-04T02:23:47.766Z,0.00
2022-11-04T02:24:47.795Z,0.00
2022-11-04T02:25:47.752Z,0.00
2022-11-04T02:26:47.787Z,0.00
2022-11-04T02:27:47.728Z,0.00
2022-11-04T02:28:47.716Z,0.00
2022-11-04T02:29:47.715Z,0.00
2022-11-04T02:30:47.687Z,0.00
2022-11-04T02:31:47.687Z,0.00
2022-11-04T02:32:47.676Z,0.00
2022-11-04T02:33:47.687Z,0.00
2022-11-04T02:34:47.677Z,0.00
2022-11-04T02:35:47.657Z,0.00
2022-11-04T02:36:47.646Z,0.00
2022-11-04T02:37:47.677Z,0.00
2022-11-04T02:38:47.618Z,0.00
2022-11-04T02:39:47.603Z,0.00
2022-11-04T02:40:47.694Z,0.00
2022-11-04T02:41:47.686Z,0.00
2022-11-04T02:42:47.567Z,0.00
2022-11-04T02:43:47.618Z,0.00
2022-11-04T02:44:47.557Z,0.00
2022-11-04T02:45:47.536Z,0.00
2022-11-04T02:46:47.530Z,0.00
2022-11-04T02:47:47.518Z,0.00
2022-11-04T02:48:47.562Z,0.00
2022-11-04T02:49:47.515Z,0.00
2022-11-04T02:50:47.485Z,0.00
2022-11-04T02:51:47.507Z,0.00
2022-11-04T02:52:50.369Z,0.00
2022-11-04T02:53:47.455Z,0.00
2022-11-04T02:54:47.484Z,0.00
2022-11-04T02:55:47.505Z,0.00
2022-11-04T02:56:47.435Z,0.00
2022-11-04T02:57:47.462Z,0.00
2022-11-04T02:58:47.405Z,0.00
2022-11-04T02:59:47.430Z,0.00
2022-11-04T03:00:47.416Z,0.00
2022-11-04T03:01:47.630Z,0.00
2022-11-04T03:02:47.375Z,0.00
2022-11-04T03:03:47.369Z,0.00
2022-11-04T03:04:47.345Z,0.00
2022-11-04T03:05:47.376Z,0.00
2022-11-04T03:06:47.364Z,0.00
2022-11-04T03:07:47.324Z,0.00
2022-11-04T03:08:47.296Z,0.00
2022-11-04T03:09:47.317Z,0.00
2022-11-04T03:10:47.278Z,0.00
2022-11-04T03:11:47.276Z,0.00
2022-11-04T03:12:47.266Z,0.00
2022-11-04T03:13:47.269Z,0.00
2022-11-04T03:14:47.258Z,0.00
2022-11-04T03:15:47.237Z,0.00
2022-11-04T03:16:47.221Z,0.00
2022-11-04T03:17:47.246Z,0.00
2022-11-04T03:18:47.184Z,0.00
2022-11-04T03:19:47.261Z,0.00
2022-11-04T03:20:47.174Z,0.00
2022-11-04T03:21:47.178Z,0.00
2022-11-04T03:22:47.154Z,0.00
2022-11-04T03:23:47.154Z,0.00
2022-11-04T03:24:47.127Z,0.00
2022-11-04T03:25:47.114Z,0.00
2022-11-04T03:26:47.115Z,0.00
2022-11-04T03:27:47.137Z,0.00
2022-11-04T03:28:47.074Z,0.00
2022-11-04T03:29:47.086Z,0.00
2022-11-04T03:30:47.094Z,0.00
2022-11-04T03:31:47.235Z,0.00
2022-11-04T03:32:47.046Z,0.00
2022-11-04T03:33:47.036Z,0.00
2022-11-04T03:34:47.067Z,0.00
2022-11-04T03:35:47.005Z,0.00
2022-11-04T03:36:47.046Z,0.00
2022-11-04T03:37:46.986Z,0.00
2022-11-04T03:38:46.975Z,0.00
2022-11-04T03:39:47.017Z,0.00
2022-11-04T03:40:46.969Z,0.00
2022-11-04T03:41:46.997Z,0.00
2022-11-04T03:42:46.927Z,0.00
2022-11-04T03:43:46.934Z,0.00
2022-11-04T03:44:46.938Z,0.00
2022-11-04T03:45:46.895Z,0.00
2022-11-04T03:46:46.940Z,0.00
2022-11-04T03:47:46.883Z,0.00
2022-11-04T03:48:46.939Z,0.00
2022-11-04T03:49:46.865Z,0.00
2022-11-04T03:50:46.873Z,0.00
2022-11-04T03:51:46.854Z,0.00
2022-11-04T03:52:46.870Z,0.00
2022-11-04T03:53:46.822Z,0.00
2022-11-04T03:54:46.923Z,0.00
2022-11-04T03:55:46.813Z,0.00
2022-11-04T03:56:46.813Z,0.00
2022-11-04T03:57:46.792Z,0.00
2022-11-04T03:58:46.856Z,0.00
2022-11-04T03:59:46.767Z,0.00
2022-11-04T04:00:46.872Z,0.00
2022-11-04T04:01:46.899Z,0.00
2022-11-04T04:02:46.741Z,0.00
2022-11-04T04:03:46.732Z,0.00
2022-11-04T04:04:46.704Z,0.00
2022-11-04T04:05:46.761Z,0.00
2022-11-04T04:06:46.765Z,0.00
2022-11-04T04:07:46.898Z,0.00
2022-11-04T04:08:46.695Z,0.00
2022-11-04T04:09:46.657Z,0.00
2022-11-04T04:10:46.652Z,0.00
2022-11-04T04:11:46.653Z,0.00
2022-11-04T04:12:46.705Z,0.00
2022-11-04T04:13:46.621Z,0.00
2022-11-04T04:14:46.605Z,0.00
2022-11-04T04:15:46.612Z,0.00
2022-11-04T04:16:46.623Z,0.00
2022-11-04T04:17:46.593Z,0.00
2022-11-04T04:18:46.564Z,0.00
2022-11-04T04:19:46.645Z,0.00
2022-11-04T04:20:46.544Z,0.00
2022-11-04T04:21:46.563Z,0.00
2022-11-04T04:22:46.513Z,0.00
2022-11-04T04:23:46.524Z,0.00
2022-11-04T04:24:46.594Z,0.00
2022-11-04T04:25:46.516Z,0.00
2022-11-04T04:26:46.512Z,0.00
2022-11-04T04:27:46.473Z,0.00
2022-11-04T04:28:46.441Z,0.00
2022-11-04T04:29:46.445Z,0.00
2022-11-04T04:30:46.430Z,0.00
2022-11-04T04:31:46.441Z,0.00
2022-11-04T04:32:46.420Z,0.00
2022-11-04T04:33:46.401Z,0.00
2022-11-04T04:34:46.385Z,0.00
2022-11-04T04:35:46.382Z,0.00
2022-11-04T04:36:46.362Z,0.00
2022-11-04T04:37:46.361Z,0.00
2022-11-04T04:38:46.341Z,0.00
2022-11-04T04:39:46.330Z,0.00
2022-11-04T04:40:46.390Z,0.00
2022-11-04T04:41:46.314Z,0.00
2022-11-04T04:42:46.311Z,0.00
2022-11-04T04:43:46.288Z,0.00
2022-11-04T04:44:46.309Z,0.00
2022-11-04T04:45:46.381Z,0.00
2022-11-04T04:46:46.276Z,0.00
2022-11-04T04:47:46.287Z,0.00
2022-11-04T04:48:46.241Z,0.00
2022-11-04T04:49:46.228Z,0.00
2022-11-04T04:50:46.234Z,0.00
2022-11-04T04:51:46.210Z,0.00
2022-11-04T04:52:46.222Z,0.00
2022-11-04T04:53:46.180Z,0.00
2022-11-04T04:54:46.202Z,0.00
2022-11-04T04:55:46.164Z,0.00
2022-11-04T04:56:46.160Z,0.00
2022-11-04T04:57:46.168Z,0.00
2022-11-04T04:58:46.143Z,0.00
2022-11-04T04:59:46.130Z,0.00
2022-11-04T05:00:46.121Z,0.00
2022-11-04T05:01:46.289Z,0.00
2022-11-04T05:02:46.177Z,0.00
2022-11-04T05:03:46.108Z,0.00
2022-11-04T05:04:46.087Z,0.00
2022-11-04T05:05:46.087Z,0.00
2022-11-04T05:06:46.102Z,0.00
2022-11-04T05:07:46.049Z,0.00
2022-11-04T05:08:46.040Z,0.00
2022-11-04T05:09:46.045Z,0.00
2022-11-04T05:10:46.009Z,0.00
2022-11-04T05:11:46.475Z,0.00
2022-11-04T05:12:46.004Z,0.00
2022-11-04T05:13:45.985Z,0.00
2022-11-04T05:14:46.081Z,0.00
2022-11-04T05:15:45.980Z,0.00
2022-11-04T05:16:45.954Z,0.00
2022-11-04T05:17:45.957Z,0.00
2022-11-04T05:18:45.951Z,0.00
2022-11-04T05:19:45.928Z,0.00
2022-11-04T05:20:45.929Z,0.00
2022-11-04T05:21:45.949Z,0.00
2022-11-04T05:22:45.899Z,0.00
2022-11-04T05:23:45.938Z,0.00
2022-11-04T05:24:45.873Z,0.00
2022-11-04T05:25:45.852Z,0.00
2022-11-04T05:26:45.881Z,0.00
2022-11-04T05:27:45.853Z,0.00
2022-11-04T05:28:45.820Z,0.00
2022-11-04T05:29:45.835Z,0.00
2022-11-04T05:30:45.809Z,0.00
2022-11-04T05:31:45.798Z,0.00
2022-11-04T05:32:45.849Z,0.00
2022-11-04T05:33:45.797Z,0.00
2022-11-04T05:34:45.759Z,0.00
2022-11-04T05:35:45.752Z,0.00
2022-11-04T05:36:45.766Z,0.00
2022-11-04T05:37:45.731Z,0.00
2022-11-04T05:38:45.742Z,0.00
2022-11-04T05:39:45.719Z,0.00
2022-11-04T05:40:45.708Z,0.00
2022-11-04T05:41:45.690Z,0.00
2022-11-04T05:42:45.692Z,0.00
2022-11-04T05:43:45.660Z,0.00
2022-11-04T05:44:45.715Z,0.00
2022-11-04T05:45:45.670Z,0.00
2022-11-04T05:46:45.648Z,0.00
2022-11-04T05:47:45.720Z,0.00
2022-11-04T05:48:45.607Z,0.00
2022-11-04T05:49:45.610Z,0.00
2022-11-04T05:50:45.609Z,0.00
2022-11-04T05:51:45.596Z,0.00
2022-11-04T05:52:45.586Z,0.00
2022-11-04T05:53:45.557Z,0.00
2022-11-04T05:54:45.579Z,0.00
2022-11-04T05:55:45.547Z,0.00
2022-11-04T05:56:45.571Z,0.00
2022-11-04T05:57:45.517Z,0.00
2022-11-04T05:58:45.517Z,0.00
2022-11-04T05:59:45.443Z,1.00
2022-11-04T06:00:45.483Z,1.00
2022-11-04T06:01:45.543Z,1.00
2022-11-04T06:02:45.571Z,2.00
2022-11-04T06:03:45.398Z,2.00
2022-11-04T06:04:45.409Z,2.00
2022-11-04T06:05:45.396Z,2.00
2022-11-04T06:06:45.393Z,3.00
2022-11-04T06:07:45.375Z,2.00
2022-11-04T06:08:45.549Z,7.00
2022-11-04T06:09:45.384Z,6.00
2022-11-04T06:10:45.350Z,5.00
2022-11-04T06:11:45.319Z,6.00
2022-11-04T06:12:45.350Z,8.00
2022-11-04T06:13:45.285Z,13.00
2022-11-04T06:14:45.320Z,17.00
2022-11-04T06:15:45.269Z,16.00
2022-11-04T06:16:45.372Z,18.00
2022-11-04T06:17:45.265Z,20.00
2022-11-04T06:18:45.237Z,27.00
2022-11-04T06:19:45.220Z,28.00
2022-11-04T06:20:45.238Z,38.00
2022-11-04T06:21:45.225Z,44.00
2022-11-04T06:22:45.218Z,46.00
2022-11-04T06:23:45.198Z,54.00
2022-11-04T06:24:45.182Z,61.00
2022-11-04T06:25:45.254Z,70.00
2022-11-04T06:26:45.246Z,78.00
2022-11-04T06:27:45.184Z,90.00
2022-11-04T06:28:45.134Z,102.00
2022-11-04T06:29:45.123Z,113.00
2022-11-04T06:30:45.135Z,124.00
2022-11-04T06:31:45.218Z,138.00
2022-11-04T06:32:45.109Z,156.00
2022-11-04T06:33:45.143Z,179.00
2022-11-04T06:34:45.127Z,202.00
2022-11-04T06:35:45.070Z,225.00
2022-11-04T06:36:45.092Z,247.00
2022-11-04T06:37:45.065Z,268.00
2022-11-04T06:38:45.036Z,282.00
2022-11-04T06:39:45.020Z,298.00
2022-11-04T06:40:45.013Z,325.00
2022-11-04T06:41:47.635Z,347.00
2022-11-04T06:42:46.006Z,363.00
2022-11-04T06:43:44.974Z,371.00
2022-11-04T06:44:44.956Z,389.00
2022-11-04T06:45:44.954Z,410.00
2022-11-04T06:46:44.951Z,428.00
2022-11-04T06:47:44.956Z,445.00
2022-11-04T06:48:44.967Z,466.00
2022-11-04T06:49:44.905Z,486.00
2022-11-04T06:50:45.011Z,497.00
2022-11-04T06:51:44.894Z,530.00
2022-11-04T06:52:44.901Z,551.00
2022-11-04T06:53:44.855Z,575.00
2022-11-04T06:54:44.905Z,606.00
2022-11-04T06:55:44.859Z,632.00
2022-11-04T06:56:44.877Z,650.00
2022-11-04T06:57:44.835Z,670.00
2022-11-04T06:58:44.942Z,700.00
2022-11-04T06:59:44.887Z,741.00
2022-11-04T07:00:44.913Z,774.00
2022-11-04T07:01:44.930Z,802.00
2022-11-04T07:02:45.169Z,853.00
2022-11-04T07:03:44.763Z,911.00
2022-11-04T07:04:44.783Z,977.00
2022-11-04T07:05:44.841Z,1041.00
2022-11-04T07:06:45.017Z,1077.00
2022-11-04T07:07:44.706Z,1104.00
2022-11-04T07:08:44.709Z,1146.00
2022-11-04T07:09:44.744Z,1169.00
2022-11-04T07:10:44.700Z,1181.00
2022-11-04T07:11:44.741Z,1170.00
2022-11-04T07:12:44.656Z,1164.00
2022-11-04T07:13:44.674Z,1155.00
2022-11-04T07:14:44.644Z,1188.00
2022-11-04T07:15:44.659Z,1235.00
2022-11-04T07:16:44.633Z,1217.00
2022-11-04T07:17:44.596Z,1093.00
2022-11-04T07:18:44.610Z,1050.00
2022-11-04T07:19:44.586Z,1082.00
2022-11-04T07:20:44.665Z,1057.00
2022-11-04T07:21:44.574Z,988.00
2022-11-04T07:22:44.713Z,952.00
2022-11-04T07:23:44.566Z,987.00
2022-11-04T07:24:44.557Z,1067.00
2022-11-04T07:25:44.523Z,1168.00
2022-11-04T07:26:44.535Z,1312.00
2022-11-04T07:27:44.514Z,1354.00
2022-11-04T07:28:44.590Z,1383.00
2022-11-04T07:29:44.515Z,1446.00
2022-11-04T07:30:44.475Z,1484.00
2022-11-04T07:31:44.482Z,1514.00
2022-11-04T07:32:44.465Z,1495.00
2022-11-04T07:33:44.455Z,1541.00
2022-11-04T07:34:44.450Z,1649.00
2022-11-04T07:35:44.415Z,1694.00
2022-11-04T07:36:44.446Z,1727.00
2022-11-04T07:37:44.404Z,1847.00
2022-11-04T07:38:44.543Z,1927.00
2022-11-04T07:39:44.388Z,1985.00
2022-11-04T07:40:44.383Z,1864.00
2022-11-04T07:41:44.371Z,1782.00
2022-11-04T07:42:44.366Z,1825.00
2022-11-04T07:43:44.343Z,1806.00
2022-11-04T07:44:44.344Z,1742.00
2022-11-04T07:45:44.329Z,1688.00
2022-11-04T07:46:44.301Z,1704.00
2022-11-04T07:47:44.376Z,1820.00
2022-11-04T07:48:44.313Z,1850.00
2022-11-04T07:49:44.336Z,1793.00
2022-11-04T07:50:44.268Z,1800.00
2022-11-04T07:51:44.253Z,1810.00
2022-11-04T07:52:44.260Z,1704.00
2022-11-04T07:53:44.254Z,1705.00
2022-11-04T07:54:44.222Z,1645.00
2022-11-04T07:55:44.284Z,1558.00
2022-11-04T07:56:44.204Z,1540.00
2022-11-04T07:57:44.198Z,1611.00
2022-11-04T07:58:44.241Z,1851.00
2022-11-04T07:59:44.170Z,2029.00
2022-11-04T08:00:44.178Z,1957.00
2022-11-04T08:01:44.187Z,1931.00
2022-11-04T08:02:44.185Z,2060.00
2022-11-04T08:03:44.121Z,2391.00
2022-11-04T08:04:44.150Z,2699.00
2022-11-04T08:05:44.126Z,2776.00
2022-11-04T08:06:44.157Z,2764.00
2022-11-04T08:07:44.132Z,2801.00
2022-11-04T08:08:44.181Z,2898.00
2022-11-04T08:09:44.135Z,3018.00
2022-11-04T08:10:44.054Z,3145.00
2022-11-04T08:11:44.046Z,3141.00
2022-11-04T08:12:44.046Z,3112.00
2022-11-04T08:13:44.033Z,3170.00
2022-11-04T08:14:44.076Z,3411.00
2022-11-04T08:15:44.030Z,3684.00
2022-11-04T08:16:44.010Z,3999.00
2022-11-04T08:17:43.971Z,4203.00
2022-11-04T08:18:43.982Z,4255.00
2022-11-04T08:19:43.955Z,4319.00
2022-11-04T08:20:43.946Z,4347.00
2022-11-04T08:21:43.933Z,4338.00
2022-11-04T08:22:43.925Z,4446.00
2022-11-04T08:23:43.943Z,4636.00
2022-11-04T08:24:43.927Z,4880.00
2022-11-04T08:25:43.882Z,5068.00
2022-11-04T08:26:43.908Z,5222.00
2022-11-04T08:27:43.898Z,5414.00
2022-11-04T08:28:43.864Z,5536.00
2022-11-04T08:29:43.852Z,5759.00
2022-11-04T08:30:43.834Z,5875.00
2022-11-04T08:31:43.813Z,5830.00
2022-11-04T08:32:43.877Z,5742.00
2022-11-04T08:33:43.883Z,5560.00
2022-11-04T08:34:43.804Z,5610.00
2022-11-04T08:35:43.789Z,5662.00
2022-11-04T08:36:43.825Z,5788.00
2022-11-04T08:37:43.953Z,5993.00
2022-11-04T08:38:43.766Z,6114.00
2022-11-04T08:39:43.797Z,6103.00
2022-11-04T08:40:43.781Z,5946.00
2022-11-04T08:41:43.712Z,5805.00
2022-11-04T08:42:43.710Z,5660.00
2022-11-04T08:43:43.704Z,5467.00
2022-11-04T08:44:43.693Z,5288.00
2022-11-04T08:45:43.681Z,5074.00
2022-11-04T08:46:43.683Z,4773.00
2022-11-04T08:47:43.690Z,4522.00
2022-11-04T08:48:43.668Z,4406.00
2022-11-04T08:49:43.652Z,4415.00
2022-11-04T08:50:43.637Z,4574.00
2022-11-04T08:51:43.616Z,4763.00
2022-11-04T08:52:43.601Z,5002.00
2022-11-04T08:53:43.653Z,5266.00
2022-11-04T08:54:43.593Z,5534.00
2022-11-04T08:55:43.643Z,5890.00
2022-11-04T08:56:43.568Z,6205.00
2022-11-04T08:57:43.617Z,6520.00
2022-11-04T08:58:43.568Z,6597.00
2022-11-04T08:59:43.536Z,6767.00
2022-11-04T09:00:43.604Z,7097.00
2022-11-04T09:01:43.529Z,7222.00
2022-11-04T09:02:43.520Z,6817.00
2022-11-04T09:03:43.579Z,6457.00
2022-11-04T09:04:43.471Z,6064.00
2022-11-04T09:05:43.500Z,6083.00
2022-11-04T09:06:43.468Z,5535.00
2022-11-04T09:07:43.451Z,5386.00
2022-11-04T09:08:43.515Z,5597.00
2022-11-04T09:09:43.434Z,5778.00
2022-11-04T09:10:43.403Z,5948.00
2022-11-04T09:11:43.453Z,5834.00
2022-11-04T09:12:43.444Z,5899.00
2022-11-04T09:13:43.405Z,5481.00
2022-11-04T09:14:43.419Z,5230.00
2022-11-04T09:15:43.400Z,4930.00
2022-11-04T09:16:43.364Z,5622.00
2022-11-04T09:17:43.369Z,5418.00
2022-11-04T09:18:43.342Z,5204.00
2022-11-04T09:19:43.335Z,6263.00
2022-11-04T09:20:43.331Z,6338.00
2022-11-04T09:21:43.305Z,6403.00
2022-11-04T09:22:45.991Z,6447.00
2022-11-04T09:23:43.319Z,6200.00
2022-11-04T09:24:43.329Z,6165.00
2022-11-04T09:25:43.282Z,6269.00
2022-11-04T09:26:43.325Z,6308.00
2022-11-04T09:27:43.264Z,5834.00
2022-11-04T09:28:43.262Z,6130.00
2022-11-04T09:29:43.262Z,7052.00
2022-11-04T09:30:43.258Z,6595.00
2022-11-04T09:31:43.401Z,6191.00
2022-11-04T09:32:45.535Z,5422.00
2022-11-04T09:33:44.245Z,6976.00
2022-11-04T09:34:43.190Z,7828.00
2022-11-04T09:35:43.189Z,8568.00
2022-11-04T09:36:43.199Z,8625.00
2022-11-04T09:37:43.152Z,7130.00
2022-11-04T09:38:43.138Z,8014.00
2022-11-04T09:39:43.142Z,7285.00
2022-11-04T09:40:44.117Z,6642.00
2022-11-04T09:41:43.141Z,5975.00
2022-11-04T09:42:43.100Z,5928.00
2022-11-04T09:43:43.110Z,7022.00
2022-11-04T09:45:06.879Z,6170.00
2022-11-04T09:45:44.072Z,7616.00
2022-11-04T09:46:43.093Z,7936.00
2022-11-04T09:47:43.052Z,8000.00
2022-11-04T09:48:43.044Z,6372.00
2022-11-04T09:49:43.120Z,6875.00
2022-11-04T09:50:43.028Z,6512.00
2022-11-04T09:51:58.458Z,5740.00
2022-11-04T09:52:44.072Z,5874.00
2022-11-04T09:53:42.960Z,5759.00
2022-11-04T09:54:47.083Z,5718.00
2022-11-04T09:55:42.952Z,5183.00
2022-11-04T09:56:42.941Z,6128.00
2022-11-04T09:57:42.995Z,7709.00
2022-11-04T09:58:42.914Z,8015.00
2022-11-04T09:59:42.940Z,7554.00
2022-11-04T10:00:42.928Z,7154.00
2022-11-04T10:01:42.971Z,6311.00
2022-11-04T10:02:42.891Z,8001.00
2022-11-04T10:03:42.867Z,9349.00
2022-11-04T10:04:42.851Z,8713.00
2022-11-04T10:05:42.852Z,8331.00
2022-11-04T10:06:42.842Z,7965.00
2022-11-04T10:07:43.373Z,6638.00
2022-11-04T10:08:42.799Z,7727.00
2022-11-04T10:09:42.803Z,6582.00
2022-11-04T10:10:42.825Z,7714.00
2022-11-04T10:11:42.771Z,7212.00
2022-11-04T10:12:42.752Z,7304.00
2022-11-04T10:13:42.794Z,8544.00
2022-11-04T10:14:42.741Z,7295.00
2022-11-04T10:15:42.730Z,7987.00
2022-11-04T10:16:42.737Z,6804.00
2022-11-04T10:17:42.718Z,5923.00
2022-11-04T10:18:42.690Z,6350.00
2022-11-04T10:19:42.721Z,5961.00
2022-11-04T10:20:44.107Z,5847.00
2022-11-04T10:21:42.683Z,5777.00
2022-11-04T10:22:42.673Z,6698.00
2022-11-04T10:23:42.680Z,6816.00
2022-11-04T10:24:42.639Z,6639.00
2022-11-04T10:25:42.703Z,5767.00
2022-11-04T10:26:42.582Z,5080.00
2022-11-04T10:27:42.630Z,6190.00
2022-11-04T10:28:42.667Z,6248.00
2022-11-04T10:29:42.570Z,7000.00
2022-11-04T10:30:42.552Z,7441.00
2022-11-04T10:31:42.554Z,7156.00
2022-11-04T10:32:42.529Z,6524.00
2022-11-04T10:33:42.515Z,6056.00
2022-11-04T10:34:42.593Z,6225.00
2022-11-04T10:35:42.490Z,6176.00
2022-11-04T10:36:42.471Z,5082.00
2022-11-04T10:37:42.472Z,4642.00
2022-11-04T10:38:42.472Z,5989.00
2022-11-04T10:39:42.469Z,6365.00
2022-11-04T10:40:42.450Z,6401.00
2022-11-04T10:41:42.421Z,6889.00
2022-11-04T10:42:42.420Z,6515.00
2022-11-04T10:43:42.406Z,6649.00
2022-11-04T10:44:42.422Z,5840.00
2022-11-04T10:45:42.396Z,4273.00
2022-11-04T10:46:42.371Z,7068.00
2022-11-04T10:47:42.395Z,7170.00
2022-11-04T10:48:42.358Z,7292.00
2022-11-04T10:50:00.041Z,7395.00
2022-11-04T10:50:43.320Z,7714.00
2022-11-04T10:51:42.320Z,7881.00
2022-11-04T10:52:42.349Z,8587.00
2022-11-04T10:53:42.327Z,8977.00
2022-11-04T10:54:42.292Z,8182.00
2022-11-04T10:55:42.281Z,7859.00
2022-11-04T10:56:42.357Z,8288.00
2022-11-04T10:57:42.300Z,10774.00
2022-11-04T10:58:42.255Z,7870.00
2022-11-04T10:59:42.266Z,6934.00
2022-11-04T11:00:42.291Z,10715.00
2022-11-04T11:01:42.332Z,10473.00
2022-11-04T11:02:42.239Z,10254.00
2022-11-04T11:03:42.203Z,10860.00
2022-11-04T11:04:42.189Z,11530.00
2022-11-04T11:05:42.183Z,12122.00
2022-11-04T11:06:42.167Z,12717.00
2022-11-04T11:07:42.141Z,14144.00
2022-11-04T11:08:42.163Z,14870.00
2022-11-04T11:09:42.135Z,13910.00
2022-11-04T11:10:42.612Z,12554.00
2022-11-04T11:11:42.134Z,11793.00
2022-11-04T11:12:50.986Z,11884.00
2022-11-04T11:13:43.072Z,11356.00
2022-11-04T11:14:42.071Z,10409.00
2022-11-04T11:15:42.063Z,10111.00
2022-11-04T11:16:42.042Z,11244.00
2022-11-04T11:17:42.037Z,9404.00
2022-11-04T11:18:42.069Z,8599.00
2022-11-04T11:19:42.014Z,9541.00
2022-11-04T11:20:42.058Z,10352.00
2022-11-04T11:21:42.001Z,11065.00
2022-11-04T11:22:41.981Z,11186.00
2022-11-04T11:23:41.980Z,11002.00
2022-11-04T11:24:42.360Z,10628.00
2022-11-04T11:25:41.975Z,11389.00
2022-11-04T11:26:41.932Z,10766.00
2022-11-04T11:27:41.963Z,7886.00
2022-11-04T11:28:41.936Z,9170.00
2022-11-04T11:29:41.906Z,8566.00
2022-11-04T11:30:41.956Z,8374.00
2022-11-04T11:31:41.883Z,8120.00
2022-11-04T11:32:41.905Z,7582.00
2022-11-04T11:33:41.865Z,7733.00
2022-11-04T11:34:41.887Z,7990.00
2022-11-04T11:35:41.836Z,8382.00
2022-11-04T11:36:41.848Z,8705.00
2022-11-04T11:37:41.824Z,8897.00
2022-11-04T11:38:41.797Z,9575.00
2022-11-04T11:39:41.813Z,10139.00
2022-11-04T11:40:57.561Z,10462.00
2022-11-04T11:41:46.038Z,10360.00
2022-11-04T11:42:42.781Z,10187.00
2022-11-04T11:43:41.750Z,9408.00
2022-11-04T11:44:41.745Z,7511.00
2022-11-04T11:45:41.735Z,8365.00
2022-11-04T11:46:41.720Z,7705.00
2022-11-04T11:47:41.735Z,7192.00
2022-11-04T11:48:41.700Z,6754.00
2022-11-04T11:49:41.932Z,6467.00
2022-11-04T11:50:41.667Z,6356.00
2022-11-04T11:51:41.743Z,6131.00
2022-11-04T11:52:41.665Z,5949.00
2022-11-04T11:53:41.644Z,5861.00
2022-11-04T11:54:41.651Z,5716.00
2022-11-04T11:55:41.631Z,5086.00
2022-11-04T11:57:07.244Z,4306.00
2022-11-04T11:57:42.792Z,4076.00
2022-11-04T12:00:44.319Z,4453.00
2022-11-04T12:01:41.693Z,4327.00
2022-11-04T12:02:41.789Z,3969.00
2022-11-04T12:09:42.528Z,5392.00
2022-11-04T12:10:56.900Z,5377.00
2022-11-04T12:11:42.460Z,5369.00
2022-11-04T12:12:41.435Z,5352.00
2022-11-04T12:13:41.431Z,5320.00
2022-11-04T12:14:44.764Z,5299.00
2022-11-04T12:15:42.413Z,5281.00
2022-11-04T12:16:41.416Z,5273.00
2022-11-04T12:17:41.415Z,5275.00
2022-11-04T12:18:41.371Z,5274.00
2022-11-04T12:19:41.368Z,5267.00
2022-11-04T12:20:41.348Z,5269.00
2022-11-04T12:21:41.348Z,5288.00
2022-11-04T12:22:41.337Z,5295.00
2022-11-04T12:23:41.355Z,5281.00
2022-11-04T12:24:41.326Z,5273.00
2022-11-04T12:25:41.317Z,5259.00
2022-11-04T12:26:41.287Z,5208.00
2022-11-04T12:27:41.276Z,5163.00
2022-11-04T12:28:41.268Z,5184.00
2022-11-04T12:29:41.257Z,5282.00
2022-11-04T12:30:41.269Z,5243.00
2022-11-04T12:31:41.258Z,5345.00
2022-11-04T12:32:41.222Z,5623.00
2022-11-04T12:33:41.610Z,5539.00
2022-11-04T12:34:41.221Z,5880.00
2022-11-04T12:35:41.205Z,5490.00
2022-11-04T12:36:43.958Z,5050.00
2022-11-04T12:37:41.178Z,5107.00
2022-11-04T12:38:41.163Z,5983.00
2022-11-04T12:39:41.153Z,6034.00
2022-11-04T12:40:41.147Z,5556.00
2022-11-04T12:42:18.980Z,5169.00
2022-11-04T12:42:42.113Z,6133.00
2022-11-04T12:43:41.123Z,6412.00
2022-11-04T12:44:41.114Z,6539.00
2022-11-04T12:45:41.293Z,6614.00
2022-11-04T12:46:41.063Z,7112.00
2022-11-04T12:47:41.061Z,5455.00
2022-11-04T12:48:41.081Z,7388.00